Englewood, Colorado
Current Conditions -  °F | °C
As of 4:53 PM on Monday 20 Oct 2014 (Local Time) from KAPA Reporting Station
Few Clouds Few Clouds  
Wind Chill: 69°   Ceiling: Unl
Heat Index: 69°   Visibility: 10mi
Dew Point: 35°   Wind: 22mph
Humidity: 29%   Direction: 170°S
Pressure: 30.08"   Gusts: 29mph
Location:  39.65°N, 104.99°W
Report Text: KAPA 202253Z 17019G25KT 10SM FEW110 FEW200 21/02 A3008 RMK AO2 PK WND 17026/2213 SLP146 T02060017
Loading
Personal Weather Stations






























Interactive Weather Map New forecast layout! Learn more

10-Day Weather Forecast

Advertisements
Track Severe Weather on mobile